createdAt,value
2022-10-17T00:00:12.355Z,10.03
2022-10-17T00:02:38.966Z,9.97
2022-10-17T00:05:05.715Z,9.98
2022-10-17T00:07:32.354Z,9.95
2022-10-17T00:09:59.293Z,9.91
2022-10-17T00:12:25.952Z,9.92
2022-10-17T00:14:52.566Z,9.92
2022-10-17T00:17:19.288Z,9.90
2022-10-17T00:19:46.003Z,9.87
2022-10-17T00:22:13.433Z,9.84
2022-10-17T00:24:40.107Z,9.84
2022-10-17T00:27:06.784Z,9.83
2022-10-17T00:29:33.541Z,9.85
2022-10-17T00:32:00.239Z,9.82
2022-10-17T00:34:29.193Z,9.80
2022-10-17T00:36:57.503Z,9.75
2022-10-17T00:39:24.930Z,9.77
2022-10-17T00:41:51.586Z,9.77
2022-10-17T00:44:31.831Z,9.77
2022-10-17T00:47:01.911Z,9.75
2022-10-17T00:49:31.104Z,9.68
2022-10-17T00:52:02.202Z,9.62
2022-10-17T00:54:39.663Z,9.62
2022-10-17T00:57:07.007Z,9.65
2022-10-17T00:59:36.060Z,9.64
2022-10-17T01:02:13.506Z,9.53
2022-10-17T01:04:44.604Z,9.50
2022-10-17T01:07:12.640Z,9.53
2022-10-17T01:09:41.012Z,9.49
2022-10-17T01:12:23.264Z,9.45
2022-10-17T01:15:13.257Z,9.38
2022-10-17T01:17:39.818Z,9.41
2022-10-17T01:20:29.535Z,9.41
2022-10-17T01:22:56.127Z,9.27
2022-10-17T01:25:59.650Z,9.24
2022-10-17T01:28:54.272Z,9.25
2022-10-17T01:31:29.640Z,9.23
2022-10-17T01:34:12.366Z,9.23
2022-10-17T01:36:50.670Z,9.14
2022-10-17T01:39:25.025Z,9.09
2022-10-17T01:42:02.744Z,9.10
2022-10-17T01:44:44.123Z,9.13
2022-10-17T01:47:15.973Z,9.04
2022-10-17T01:49:45.717Z,9.06
2022-10-17T01:52:23.224Z,9.11
2022-10-17T01:54:55.639Z,8.99
2022-10-17T01:57:34.933Z,8.95
2022-10-17T02:00:05.733Z,8.99
2022-10-17T02:02:41.219Z,8.97
2022-10-17T02:05:08.856Z,8.89
2022-10-17T02:07:35.490Z,8.88
2022-10-17T02:10:09.151Z,8.87
2022-10-17T02:13:17.390Z,8.80
2022-10-17T02:16:14.228Z,8.76
2022-10-17T02:18:53.004Z,8.62
2022-10-17T02:21:44.190Z,8.65
2022-10-17T02:24:16.955Z,8.68
2022-10-17T02:26:52.705Z,8.62
2022-10-17T02:29:33.285Z,8.59
2022-10-17T02:32:12.398Z,8.63
2022-10-17T02:34:47.597Z,8.65
2022-10-17T02:37:19.366Z,8.56
2022-10-17T02:39:47.599Z,8.52
2022-10-17T02:42:15.851Z,8.58
2022-10-17T02:44:44.927Z,8.54
2022-10-17T02:47:54.386Z,8.57
2022-10-17T02:50:26.642Z,8.58
2022-10-17T02:53:00.643Z,8.52
2022-10-17T02:55:43.300Z,8.47
2022-10-17T02:58:21.007Z,8.48
2022-10-17T03:00:48.948Z,8.40
2022-10-17T03:03:28.149Z,8.31
2022-10-17T03:05:58.988Z,8.36
2022-10-17T03:08:26.422Z,8.32
2022-10-17T03:10:53.150Z,8.23
2022-10-17T03:13:21.428Z,8.25
2022-10-17T03:15:48.298Z,8.27
2022-10-17T03:18:14.984Z,8.29
2022-10-17T03:20:41.711Z,8.24
2022-10-17T03:23:08.691Z,8.28
2022-10-17T03:25:36.360Z,8.26
2022-10-17T03:28:03.182Z,8.19
2022-10-17T03:30:29.801Z,8.20
2022-10-17T03:32:58.512Z,8.14
2022-10-17T03:35:26.079Z,8.10
2022-10-17T03:37:52.807Z,8.17
2022-10-17T03:40:21.813Z,8.16
2022-10-17T03:42:48.526Z,8.16
2022-10-17T03:45:15.147Z,8.10
2022-10-17T03:47:42.256Z,8.16
2022-10-17T03:50:09.290Z,8.18
2022-10-17T03:52:38.153Z,8.12
2022-10-17T03:55:05.273Z,8.06
2022-10-17T03:57:32.325Z,8.03
2022-10-17T03:59:59.281Z,8.01
2022-10-17T04:02:25.986Z,7.93
2022-10-17T04:04:52.811Z,7.87
2022-10-17T04:07:19.484Z,7.84
2022-10-17T04:09:48.151Z,7.92
2022-10-17T04:12:19.081Z,7.89
2022-10-17T04:14:46.282Z,7.87
2022-10-17T04:17:14.022Z,7.88
2022-10-17T04:19:40.790Z,7.98
2022-10-17T04:22:10.170Z,8.01
2022-10-17T04:24:39.084Z,8.09
2022-10-17T04:27:09.405Z,8.15
2022-10-17T04:29:40.201Z,8.11
2022-10-17T04:32:20.595Z,8.05
2022-10-17T04:34:56.160Z,8.04
2022-10-17T04:37:23.636Z,8.01
2022-10-17T04:39:52.654Z,8.06
2022-10-17T04:42:19.951Z,7.96
2022-10-17T04:44:47.102Z,8.04
2022-10-17T04:47:16.282Z,7.98
2022-10-17T04:49:43.632Z,7.97
2022-10-17T04:52:10.992Z,7.95
2022-10-17T04:54:40.663Z,7.90
2022-10-17T04:57:10.074Z,7.84
2022-10-17T04:59:37.140Z,7.87
2022-10-17T05:02:27.739Z,7.88
2022-10-17T05:04:55.289Z,7.95
2022-10-17T05:07:22.202Z,7.93
2022-10-17T05:10:10.807Z,7.85
2022-10-17T05:12:39.282Z,7.88
2022-10-17T05:15:06.695Z,7.89
2022-10-17T05:17:35.205Z,7.84
2022-10-17T05:20:01.929Z,7.84
2022-10-17T05:22:30.949Z,7.95
2022-10-17T05:25:00.569Z,8.18
2022-10-17T05:27:27.189Z,8.41
2022-10-17T05:29:53.836Z,8.54
2022-10-17T05:32:26.940Z,8.59
2022-10-17T05:34:53.731Z,8.68
2022-10-17T05:37:22.589Z,8.63
2022-10-17T05:39:51.826Z,8.49
2022-10-17T05:42:19.692Z,8.44
2022-10-17T05:44:47.240Z,8.39
2022-10-17T05:47:16.179Z,8.26
2022-10-17T05:49:48.549Z,8.30
2022-10-17T05:52:19.949Z,8.34
2022-10-17T05:55:10.181Z,8.31
2022-10-17T05:57:36.941Z,8.36
2022-10-17T06:00:06.998Z,8.37
2022-10-17T06:02:45.957Z,8.44
2022-10-17T06:05:15.265Z,8.55
2022-10-17T06:07:42.802Z,8.58
2022-10-17T06:10:12.357Z,8.65
2022-10-17T06:12:39.803Z,8.75
2022-10-17T06:15:08.630Z,8.79
2022-10-17T06:17:36.237Z,8.82
2022-10-17T06:20:03.097Z,8.91
2022-10-17T06:22:30.116Z,9.02
2022-10-17T06:24:57.399Z,9.05
2022-10-17T06:27:24.232Z,9.11
2022-10-17T06:29:51.290Z,9.16
2022-10-17T06:32:18.335Z,9.25
2022-10-17T06:34:49.226Z,9.32
2022-10-17T06:37:17.009Z,9.39
2022-10-17T06:39:45.711Z,9.45
2022-10-17T06:42:15.903Z,9.57
2022-10-17T06:45:09.585Z,9.84
2022-10-17T06:47:51.867Z,9.85
2022-10-17T06:50:37.207Z,9.95
2022-10-17T06:53:12.535Z,10.05
2022-10-17T06:56:02.855Z,10.14
2022-10-17T06:58:51.314Z,10.22
2022-10-17T07:01:29.925Z,10.34
2022-10-17T07:03:58.754Z,10.44
2022-10-17T07:06:25.917Z,10.54
2022-10-17T07:08:55.800Z,10.64
2022-10-17T07:11:23.206Z,10.75
2022-10-17T07:13:52.299Z,10.87
2022-10-17T07:16:21.242Z,10.96
2022-10-17T07:18:52.571Z,11.10
2022-10-17T07:21:21.031Z,11.22
2022-10-17T07:23:48.454Z,11.35
2022-10-17T07:26:16.690Z,11.56
2022-10-17T07:28:46.511Z,11.75
2022-10-17T07:31:24.427Z,11.92
2022-10-17T07:33:51.362Z,12.09
2022-10-17T07:36:18.944Z,12.17
2022-10-17T07:38:46.246Z,12.25
2022-10-17T07:41:17.754Z,12.41
2022-10-17T07:43:48.804Z,12.75
2022-10-17T07:46:19.072Z,12.93
2022-10-17T07:48:46.132Z,13.16
2022-10-17T07:51:13.065Z,13.47
2022-10-17T07:53:42.768Z,14.16
2022-10-17T07:56:12.433Z,14.74
2022-10-17T07:58:39.416Z,15.85
2022-10-17T08:01:10.846Z,17.46
2022-10-17T08:03:44.327Z,18.93
2022-10-17T08:06:11.506Z,20.10
2022-10-17T08:08:38.356Z,20.87
2022-10-17T08:11:08.058Z,21.52
2022-10-17T08:13:35.294Z,21.81
2022-10-17T08:16:04.324Z,22.61
2022-10-17T08:18:30.997Z,22.70
2022-10-17T08:21:01.940Z,23.34
2022-10-17T08:23:28.826Z,23.40
2022-10-17T08:25:58.504Z,23.81
2022-10-17T08:28:25.237Z,23.97
2022-10-17T08:30:51.900Z,23.94
2022-10-17T08:33:18.551Z,24.49
2022-10-17T08:35:45.172Z,24.69
2022-10-17T08:38:13.406Z,24.28
2022-10-17T08:40:42.843Z,24.03
2022-10-17T08:43:15.662Z,24.94
2022-10-17T08:45:51.587Z,25.55
2022-10-17T08:48:23.555Z,25.13
2022-10-17T08:50:53.016Z,25.46
2022-10-17T08:53:50.615Z,25.85
2022-10-17T08:56:30.327Z,26.73
2022-10-17T08:59:06.447Z,26.69
2022-10-17T09:01:44.497Z,26.49
2022-10-17T09:04:49.520Z,25.71
2022-10-17T09:08:12.774Z,27.20
2022-10-17T09:11:00.586Z,26.99
2022-10-17T09:13:33.387Z,26.96
2022-10-17T09:16:11.604Z,26.76
2022-10-17T09:18:46.084Z,27.88
2022-10-17T09:21:33.452Z,27.36
2022-10-17T09:24:15.409Z,28.02
2022-10-17T09:26:45.344Z,28.19
2022-10-17T09:29:22.710Z,28.42
2022-10-17T09:32:02.553Z,28.98
2022-10-17T09:34:31.485Z,28.42
2022-10-17T09:37:00.771Z,28.75
2022-10-17T09:39:32.050Z,29.25
2022-10-17T09:42:01.438Z,28.77
2022-10-17T09:44:35.494Z,28.53
2022-10-17T09:47:15.241Z,29.30
2022-10-17T09:49:44.767Z,29.55
2022-10-17T09:52:18.555Z,29.90
2022-10-17T09:54:47.005Z,29.93
2022-10-17T09:57:15.573Z,29.95
2022-10-17T09:59:45.578Z,30.19
2022-10-17T10:02:23.833Z,29.09
2022-10-17T10:05:07.491Z,29.97
2022-10-17T10:07:39.236Z,29.99
2022-10-17T10:10:07.894Z,31.34
2022-10-17T10:12:38.046Z,31.11
2022-10-17T10:15:38.671Z,31.13
2022-10-17T10:18:25.305Z,30.22
2022-10-17T10:21:13.642Z,31.13
2022-10-17T10:23:43.044Z,30.14
2022-10-17T10:26:26.451Z,30.15
2022-10-17T10:29:00.741Z,31.31
2022-10-17T10:31:39.859Z,31.25
2022-10-17T10:34:25.179Z,31.82
2022-10-17T10:36:59.107Z,30.28
2022-10-17T10:39:32.084Z,31.79
2022-10-17T10:42:01.259Z,32.53
2022-10-17T10:44:32.158Z,32.07
2022-10-17T10:47:24.068Z,32.62
2022-10-17T10:49:53.289Z,33.10
2022-10-17T10:52:30.602Z,32.66
2022-10-17T10:55:10.337Z,32.49
2022-10-17T10:57:39.707Z,33.07
2022-10-17T11:00:21.271Z,32.37
2022-10-17T11:03:01.805Z,31.43
2022-10-17T11:05:34.778Z,32.31
2022-10-17T11:08:20.475Z,32.78
2022-10-17T11:10:59.855Z,33.06
2022-10-17T11:13:40.224Z,32.60
2022-10-17T11:16:19.414Z,32.54
2022-10-17T11:18:50.885Z,32.49
2022-10-17T11:21:34.185Z,32.76
2022-10-17T11:24:15.050Z,32.09
2022-10-17T11:27:05.906Z,32.99
2022-10-17T11:29:35.207Z,33.30
2022-10-17T11:32:13.902Z,32.99
2022-10-17T11:34:53.602Z,34.12
2022-10-17T11:37:25.539Z,33.58
2022-10-17T11:39:58.747Z,32.49
2022-10-17T11:42:38.375Z,33.24
2022-10-17T11:45:11.941Z,33.59
2022-10-17T11:47:46.831Z,33.32
2022-10-17T11:53:18.336Z,34.42
2022-10-17T11:55:46.668Z,34.47
2022-10-17T11:58:22.369Z,34.36
2022-10-17T12:01:27.988Z,34.84
2022-10-17T12:04:08.222Z,34.19
2022-10-17T12:07:09.276Z,32.56
2022-10-17T12:09:51.958Z,33.37
2022-10-17T12:12:33.257Z,33.54
2022-10-17T12:15:26.334Z,34.24
2022-10-17T12:18:06.588Z,34.33
2022-10-17T12:20:38.457Z,34.32
2022-10-17T12:23:11.152Z,35.05
2022-10-17T12:25:51.920Z,37.02
2022-10-17T12:28:18.622Z,39.79
2022-10-17T12:31:06.191Z,41.68
2022-10-17T12:33:49.489Z,42.18
2022-10-17T12:36:18.857Z,42.67
2022-10-17T12:38:49.865Z,41.15
2022-10-17T12:41:37.156Z,42.71
2022-10-17T12:44:21.592Z,42.95
2022-10-17T12:46:55.467Z,43.09
2022-10-17T12:49:54.340Z,38.37
2022-10-17T12:52:59.123Z,35.37
2022-10-17T12:55:26.422Z,34.38
2022-10-17T12:58:08.182Z,33.84
2022-10-17T13:01:18.858Z,33.84
2022-10-17T13:03:44.605Z,32.34
2022-10-17T13:06:23.859Z,33.08
2022-10-17T13:09:04.462Z,32.46
2022-10-17T13:11:33.617Z,32.23
2022-10-17T13:14:03.377Z,32.52
2022-10-17T13:16:39.339Z,32.67
2022-10-17T13:19:24.536Z,32.09
2022-10-17T13:22:06.900Z,32.02
2022-10-17T13:24:39.463Z,31.34
2022-10-17T13:27:21.966Z,31.58
2022-10-17T13:29:48.626Z,31.27
2022-10-17T13:32:15.320Z,31.96
2022-10-17T13:34:42.026Z,30.93
2022-10-17T13:37:14.861Z,31.48
2022-10-17T13:39:54.799Z,31.06
2022-10-17T13:42:29.232Z,31.53
2022-10-17T13:44:57.581Z,31.84
2022-10-17T13:47:28.101Z,31.60
2022-10-17T13:49:55.862Z,31.42
2022-10-17T13:52:27.088Z,31.41
2022-10-17T13:54:55.054Z,31.12
2022-10-17T13:57:25.087Z,30.90
2022-10-17T14:00:09.900Z,30.63
2022-10-17T14:02:42.899Z,30.72
2022-10-17T14:05:19.210Z,30.48
2022-10-17T14:10:42.267Z,29.91
2022-10-17T14:13:21.205Z,29.70
2022-10-17T14:15:48.396Z,29.17
2022-10-17T14:18:21.000Z,28.96
2022-10-17T14:23:43.023Z,29.18
2022-10-17T14:26:23.581Z,29.12
2022-10-17T14:29:06.997Z,29.10
2022-10-17T14:31:36.651Z,28.48
2022-10-17T14:34:05.401Z,28.41
2022-10-17T14:36:36.264Z,27.81
2022-10-17T14:39:04.836Z,27.62
2022-10-17T14:41:44.123Z,27.33
2022-10-17T14:44:25.898Z,26.77
2022-10-17T14:46:56.695Z,26.89
2022-10-17T14:49:28.539Z,26.81
2022-10-17T14:52:17.553Z,26.06
2022-10-17T14:54:48.921Z,25.31
2022-10-17T14:57:43.555Z,24.78
2022-10-17T15:00:15.090Z,24.30
2022-10-17T15:02:41.925Z,24.31
2022-10-17T15:05:13.073Z,24.51
2022-10-17T15:07:40.586Z,24.48
2022-10-17T15:10:11.962Z,23.82
2022-10-17T15:12:39.789Z,23.18
2022-10-17T15:15:12.999Z,22.29
2022-10-17T15:17:41.819Z,21.62
2022-10-17T15:20:17.760Z,21.23
2022-10-17T15:22:45.615Z,21.19
2022-10-17T15:25:12.320Z,20.74
2022-10-17T15:27:38.995Z,20.40
2022-10-17T15:30:21.600Z,19.99
2022-10-17T15:32:49.505Z,19.91
2022-10-17T15:35:17.509Z,19.72
2022-10-17T15:37:46.365Z,19.53
2022-10-17T15:40:20.869Z,19.22
2022-10-17T15:42:47.813Z,19.02
2022-10-17T15:45:17.659Z,18.84
2022-10-17T15:47:50.954Z,18.66
2022-10-17T15:50:18.407Z,18.47
2022-10-17T15:52:47.032Z,18.40
2022-10-17T15:55:13.861Z,18.16
2022-10-17T15:57:44.073Z,18.00
2022-10-17T16:00:20.516Z,17.82
2022-10-17T16:02:49.328Z,17.69
2022-10-17T16:05:18.023Z,17.46
2022-10-17T16:07:48.470Z,17.29
2022-10-17T16:10:16.422Z,17.15
2022-10-17T16:12:43.724Z,17.04
2022-10-17T16:15:16.363Z,16.94
2022-10-17T16:17:43.874Z,16.79
2022-10-17T16:20:12.213Z,16.72
2022-10-17T16:22:40.698Z,16.61
2022-10-17T16:25:20.489Z,16.48
2022-10-17T16:27:49.367Z,16.36
2022-10-17T16:30:16.499Z,16.36
2022-10-17T16:32:43.619Z,16.32
2022-10-17T16:35:16.351Z,16.22
2022-10-17T16:37:43.074Z,16.11
2022-10-17T16:40:10.424Z,16.01
2022-10-17T16:42:37.112Z,15.93
2022-10-17T16:45:04.150Z,15.82
2022-10-17T16:47:30.792Z,15.80
2022-10-17T16:49:57.529Z,15.60
2022-10-17T16:52:24.179Z,15.58
2022-10-17T16:54:50.856Z,15.50
2022-10-17T16:57:17.491Z,15.47
2022-10-17T16:59:44.186Z,15.43
2022-10-17T17:02:12.039Z,15.33
2022-10-17T17:04:38.803Z,15.27
2022-10-17T17:07:05.426Z,15.21
2022-10-17T17:09:32.065Z,15.15
2022-10-17T17:11:58.693Z,15.10
2022-10-17T17:14:25.296Z,15.05
2022-10-17T17:16:51.941Z,15.07
2022-10-17T17:19:18.676Z,15.03
2022-10-17T17:21:50.118Z,14.93
2022-10-17T17:24:18.080Z,14.89
2022-10-17T17:26:45.282Z,14.77
2022-10-17T17:29:12.250Z,14.68
2022-10-17T17:31:39.363Z,14.64
2022-10-17T17:34:09.659Z,14.57
2022-10-17T17:36:38.502Z,14.58
2022-10-17T17:39:09.218Z,14.55
2022-10-17T17:41:35.902Z,14.45
2022-10-17T17:44:03.480Z,14.38
2022-10-17T17:46:30.499Z,14.29
2022-10-17T17:48:57.251Z,14.25
2022-10-17T17:51:28.327Z,14.26
2022-10-17T17:53:56.367Z,14.19
2022-10-17T17:56:30.618Z,14.13
2022-10-17T17:59:01.105Z,14.07
2022-10-17T18:01:30.520Z,14.04
2022-10-17T18:04:01.693Z,14.08
2022-10-17T18:06:28.924Z,14.11
2022-10-17T18:08:58.026Z,14.08
2022-10-17T18:11:26.182Z,14.01
2022-10-17T18:14:01.232Z,13.95
2022-10-17T18:16:29.530Z,13.93
2022-10-17T18:18:56.597Z,13.86
2022-10-17T18:21:23.601Z,13.87
2022-10-17T18:23:51.778Z,13.88
2022-10-17T18:26:18.953Z,13.87
2022-10-17T18:28:46.036Z,13.81
2022-10-17T18:31:12.574Z,13.69
2022-10-17T18:33:39.822Z,13.68
2022-10-17T18:36:09.665Z,13.63
2022-10-17T18:38:36.970Z,13.58
2022-10-17T18:41:09.435Z,13.55
2022-10-17T18:43:37.368Z,13.56
2022-10-17T18:46:12.421Z,13.48
2022-10-17T18:48:44.475Z,13.52
2022-10-17T18:51:12.574Z,13.46
2022-10-17T18:53:44.582Z,13.42
2022-10-17T18:56:12.320Z,13.41
2022-10-17T18:58:39.972Z,13.33
2022-10-17T19:01:09.852Z,13.27
2022-10-17T19:03:37.218Z,13.19
2022-10-17T19:06:10.124Z,13.18
2022-10-17T19:08:38.067Z,13.16
2022-10-17T19:11:10.095Z,13.13
2022-10-17T19:13:37.526Z,13.05
2022-10-17T19:16:21.443Z,13.09
2022-10-17T19:18:53.276Z,13.01
2022-10-17T19:21:21.945Z,12.93
2022-10-17T19:23:55.186Z,12.86
2022-10-17T19:26:22.341Z,12.87
2022-10-17T19:28:52.116Z,12.91
2022-10-17T19:31:26.239Z,12.91
2022-10-17T19:33:54.912Z,13.00
2022-10-17T19:36:26.291Z,13.01
2022-10-17T19:38:56.743Z,12.96
2022-10-17T19:41:23.815Z,12.93
2022-10-17T19:43:50.885Z,12.87
2022-10-17T19:46:20.691Z,12.80
2022-10-17T19:48:49.239Z,12.75
2022-10-17T19:51:17.727Z,12.74
2022-10-17T19:53:44.823Z,12.71
2022-10-17T19:56:12.417Z,12.68
2022-10-17T19:58:46.523Z,12.68
2022-10-17T20:01:15.973Z,12.68
2022-10-17T20:03:42.995Z,12.69
2022-10-17T20:06:09.638Z,12.65
2022-10-17T20:08:38.255Z,12.62
2022-10-17T20:11:10.867Z,12.59
2022-10-17T20:13:38.237Z,12.56
2022-10-17T20:16:06.431Z,12.49
2022-10-17T20:18:34.119Z,12.48
2022-10-17T20:21:09.978Z,12.43
2022-10-17T20:23:37.582Z,12.42
2022-10-17T20:26:25.314Z,12.44
2022-10-17T20:28:54.174Z,12.33
2022-10-17T20:31:21.710Z,12.27
2022-10-17T20:33:49.212Z,12.30
2022-10-17T20:36:16.694Z,12.29
2022-10-17T20:38:43.813Z,12.27
2022-10-17T20:41:10.942Z,12.26
2022-10-17T20:43:38.598Z,12.24
2022-10-17T20:46:22.936Z,12.22
2022-10-17T20:48:54.515Z,12.23
2022-10-17T20:51:22.155Z,12.24
2022-10-17T20:53:48.971Z,12.20
2022-10-17T20:56:24.405Z,12.15
2022-10-17T20:58:56.598Z,12.14
2022-10-17T21:01:25.309Z,12.16
2022-10-17T21:03:52.743Z,12.14
2022-10-17T21:06:20.294Z,12.08
2022-10-17T21:08:48.511Z,12.05
2022-10-17T21:11:23.398Z,12.04
2022-10-17T21:13:56.540Z,12.01
2022-10-17T21:16:23.501Z,11.99
2022-10-17T21:18:50.674Z,11.95
2022-10-17T21:21:26.789Z,11.96
2022-10-17T21:23:56.226Z,11.96
2022-10-17T21:26:23.249Z,11.95
2022-10-17T21:28:50.469Z,11.93
2022-10-17T21:31:19.953Z,11.92
2022-10-17T21:33:49.687Z,11.89
2022-10-17T21:36:17.348Z,11.79
2022-10-17T21:38:45.750Z,11.75
2022-10-17T21:41:14.219Z,11.67
2022-10-17T21:43:41.955Z,11.64
2022-10-17T21:46:13.180Z,11.62
2022-10-17T21:48:40.222Z,11.58
2022-10-17T21:51:09.810Z,11.59
2022-10-17T21:53:37.154Z,11.59
2022-10-17T21:56:06.347Z,11.56
2022-10-17T21:58:33.760Z,11.55
2022-10-17T22:01:04.950Z,11.54
2022-10-17T22:03:42.588Z,11.50
2022-10-17T22:09:02.487Z,11.45
2022-10-17T22:11:32.812Z,11.44
2022-10-17T22:14:07.002Z,11.38
2022-10-17T22:16:34.487Z,11.38
2022-10-17T22:19:06.145Z,11.35
2022-10-17T22:21:35.395Z,11.31
2022-10-17T22:24:05.659Z,11.29
2022-10-17T22:26:34.607Z,11.25
2022-10-17T22:29:01.706Z,11.25
2022-10-17T22:31:28.528Z,11.21
2022-10-17T22:33:55.834Z,11.18
2022-10-17T22:36:22.683Z,11.11
2022-10-17T22:38:49.253Z,11.07
2022-10-17T22:41:16.084Z,11.03
2022-10-17T22:43:42.713Z,11.04
2022-10-17T22:46:10.322Z,11.05
2022-10-17T22:48:36.929Z,11.08
2022-10-17T22:51:03.619Z,11.05
2022-10-17T22:53:30.423Z,11.02
2022-10-17T22:56:00.396Z,10.99
2022-10-17T22:58:28.765Z,10.95
2022-10-17T23:00:55.831Z,10.97
2022-10-17T23:03:23.510Z,10.93
2022-10-17T23:05:50.938Z,10.90
2022-10-17T23:08:18.310Z,10.85
2022-10-17T23:10:46.382Z,10.80
2022-10-17T23:13:14.149Z,10.76
2022-10-17T23:15:43.513Z,10.78
2022-10-17T23:18:10.513Z,10.68
2022-10-17T23:20:37.873Z,10.65
2022-10-17T23:23:05.028Z,10.67
2022-10-17T23:25:34.051Z,10.63
2022-10-17T23:28:01.199Z,10.64
2022-10-17T23:30:27.895Z,10.58
2022-10-17T23:32:54.497Z,10.59
2022-10-17T23:35:21.085Z,10.57
2022-10-17T23:37:47.697Z,10.57
2022-10-17T23:40:14.311Z,10.50
2022-10-17T23:42:40.958Z,10.52
2022-10-17T23:45:08.274Z,10.45
2022-10-17T23:47:34.916Z,10.44
2022-10-17T23:50:03.535Z,10.43
2022-10-17T23:52:30.115Z,10.39
2022-10-17T23:54:56.774Z,10.38
2022-10-17T23:57:23.399Z,10.33
2022-10-17T23:59:50.051Z,10.30
